createdAt,value
2022-10-22T00:01:38.975Z,15.72
2022-10-22T00:04:06.128Z,15.72
2022-10-22T00:06:33.210Z,15.75
2022-10-22T00:09:00.188Z,15.70
2022-10-22T00:11:26.763Z,15.70
2022-10-22T00:13:53.253Z,15.76
2022-10-22T00:16:19.627Z,15.69
2022-10-22T00:18:46.044Z,15.68
2022-10-22T00:21:12.897Z,15.69
2022-10-22T00:23:42.853Z,15.69
2022-10-22T00:26:10.356Z,15.72
2022-10-22T00:28:37.028Z,15.65
2022-10-22T00:31:03.669Z,15.75
2022-10-22T00:33:30.957Z,15.09
2022-10-22T00:35:57.772Z,15.38
2022-10-22T00:38:24.239Z,15.61
2022-10-22T00:40:50.803Z,15.65
2022-10-22T00:43:19.711Z,15.63
2022-10-22T00:45:46.606Z,15.65
2022-10-22T00:48:14.816Z,15.65
2022-10-22T00:50:45.824Z,15.66
2022-10-22T00:53:19.408Z,15.63
2022-10-22T00:55:49.238Z,15.68
2022-10-22T00:58:16.249Z,15.65
2022-10-22T01:00:43.099Z,15.69
2022-10-22T01:03:09.709Z,15.72
2022-10-22T01:05:44.311Z,15.70
2022-10-22T01:08:25.492Z,15.70
2022-10-22T01:11:07.983Z,15.71
2022-10-22T01:13:58.589Z,15.62
2022-10-22T01:16:55.559Z,14.95
2022-10-22T01:19:40.175Z,15.39
2022-10-22T01:22:18.963Z,15.48
2022-10-22T01:25:21.203Z,15.57
2022-10-22T01:27:55.670Z,15.42
2022-10-22T01:30:22.752Z,15.55
2022-10-22T01:32:52.939Z,15.42
2022-10-22T01:35:25.372Z,15.54
2022-10-22T01:37:58.681Z,14.89
2022-10-22T01:40:26.188Z,14.77
2022-10-22T01:42:57.419Z,15.19
2022-10-22T01:45:23.940Z,14.38
2022-10-22T01:48:00.490Z,13.67
2022-10-22T01:50:56.044Z,13.46
2022-10-22T01:53:32.406Z,13.36
2022-10-22T01:56:29.322Z,13.46
2022-10-22T01:59:08.187Z,14.59
2022-10-22T02:02:03.944Z,14.96
2022-10-22T02:04:41.057Z,15.18
2022-10-22T02:07:11.435Z,15.28
2022-10-22T02:09:40.350Z,15.32
2022-10-22T02:12:09.125Z,15.36
2022-10-22T02:14:41.326Z,15.36
2022-10-22T02:17:13.059Z,15.36
2022-10-22T02:19:53.779Z,15.38
2022-10-22T02:22:20.496Z,15.40
2022-10-22T02:24:48.667Z,15.40
2022-10-22T02:27:31.836Z,15.41
2022-10-22T02:29:58.197Z,15.39
2022-10-22T02:32:30.323Z,15.34
2022-10-22T02:34:57.388Z,15.41
2022-10-22T02:37:25.571Z,15.40
2022-10-22T02:39:52.983Z,15.44
2022-10-22T02:42:19.535Z,15.36
2022-10-22T02:44:45.933Z,14.78
2022-10-22T02:47:12.371Z,14.11
2022-10-22T02:49:38.760Z,13.76
2022-10-22T02:52:05.302Z,14.44
2022-10-22T02:54:31.831Z,14.21
2022-10-22T02:56:58.206Z,13.79
2022-10-22T02:59:24.650Z,14.55
2022-10-22T03:01:51.084Z,14.89
2022-10-22T03:04:17.520Z,14.72
2022-10-22T03:06:44.635Z,15.13
2022-10-22T03:09:11.256Z,15.09
2022-10-22T03:11:37.765Z,15.19
2022-10-22T03:14:04.187Z,15.16
2022-10-22T03:16:30.611Z,15.20
2022-10-22T03:18:57.118Z,15.27
2022-10-22T03:21:34.250Z,15.30
2022-10-22T03:24:05.725Z,15.27
2022-10-22T03:26:32.734Z,15.23
2022-10-22T03:29:00.816Z,15.27
2022-10-22T03:31:27.229Z,15.30
2022-10-22T03:33:53.838Z,15.30
2022-10-22T03:36:20.353Z,15.30
2022-10-22T03:38:47.252Z,15.32
2022-10-22T03:41:13.858Z,15.31
2022-10-22T03:43:41.100Z,15.36
2022-10-22T03:46:07.872Z,15.31
2022-10-22T03:48:34.314Z,15.30
2022-10-22T03:51:00.761Z,15.34
2022-10-22T03:53:27.189Z,15.36
2022-10-22T03:55:53.604Z,15.32
2022-10-22T03:58:20.051Z,15.27
2022-10-22T04:00:46.551Z,15.26
2022-10-22T04:03:12.989Z,15.24
2022-10-22T04:05:39.428Z,15.26
2022-10-22T04:08:05.924Z,15.23
2022-10-22T04:10:32.412Z,15.26
2022-10-22T04:12:58.856Z,15.25
2022-10-22T04:15:28.075Z,15.20
2022-10-22T04:17:55.343Z,13.93
2022-10-22T04:20:21.761Z,14.77
2022-10-22T04:22:48.211Z,15.11
2022-10-22T04:25:14.692Z,15.20
2022-10-22T04:27:41.238Z,15.28
2022-10-22T04:30:08.533Z,15.22
2022-10-22T04:32:35.008Z,15.21
2022-10-22T04:35:01.467Z,15.20
2022-10-22T04:37:27.853Z,15.18
2022-10-22T04:39:54.281Z,15.17
2022-10-22T04:42:20.672Z,15.14
2022-10-22T04:44:47.097Z,15.17
2022-10-22T04:47:13.480Z,15.17
2022-10-22T04:49:40.389Z,15.17
2022-10-22T04:52:06.839Z,15.20
2022-10-22T04:54:33.339Z,15.20
2022-10-22T04:56:59.888Z,15.07
2022-10-22T04:59:26.483Z,15.15
2022-10-22T05:01:52.914Z,14.52
2022-10-22T05:04:19.712Z,14.79
2022-10-22T05:06:47.063Z,14.40
2022-10-22T05:09:16.259Z,14.67
2022-10-22T05:11:48.689Z,15.02
2022-10-22T05:14:17.912Z,15.11
2022-10-22T05:19:18.007Z,15.15
2022-10-22T05:21:44.676Z,15.08
2022-10-22T05:24:11.617Z,15.13
2022-10-22T05:26:38.024Z,15.15
2022-10-22T05:29:04.421Z,15.05
2022-10-22T05:31:30.815Z,13.87
2022-10-22T05:33:57.334Z,14.89
2022-10-22T05:36:23.900Z,15.05
2022-10-22T05:38:50.865Z,15.10
2022-10-22T05:41:25.320Z,15.11
2022-10-22T05:43:54.083Z,15.09
2022-10-22T05:46:23.260Z,15.06
2022-10-22T05:48:51.148Z,15.07
2022-10-22T05:51:18.523Z,15.08
2022-10-22T05:53:45.491Z,15.08
2022-10-22T05:56:14.408Z,15.04
2022-10-22T05:58:41.888Z,15.00
2022-10-22T06:01:12.999Z,15.07
2022-10-22T06:03:39.531Z,15.10
2022-10-22T06:06:17.894Z,15.09
2022-10-22T06:08:46.217Z,15.07
2022-10-22T06:11:13.267Z,15.05
2022-10-22T06:13:39.711Z,14.76
2022-10-22T06:16:06.269Z,14.98
2022-10-22T06:18:33.697Z,13.73
2022-10-22T06:21:12.567Z,14.21
2022-10-22T06:23:40.226Z,14.74
2022-10-22T06:26:07.618Z,14.74
2022-10-22T06:28:34.316Z,14.86
2022-10-22T06:31:02.349Z,14.77
2022-10-22T06:33:29.664Z,14.94
2022-10-22T06:36:06.769Z,14.78
2022-10-22T06:38:34.229Z,14.99
2022-10-22T06:41:06.036Z,13.85
2022-10-22T06:43:32.430Z,14.51
2022-10-22T06:46:03.767Z,12.95
2022-10-22T06:48:30.590Z,14.59
2022-10-22T06:51:01.862Z,14.81
2022-10-22T06:53:28.407Z,14.86
2022-10-22T06:55:54.810Z,14.89
2022-10-22T06:58:21.491Z,14.87
2022-10-22T07:00:47.896Z,14.90
2022-10-22T07:03:15.743Z,14.93
2022-10-22T07:05:42.376Z,14.87
2022-10-22T07:08:08.903Z,14.96
2022-10-22T07:10:35.388Z,14.93
2022-10-22T07:13:01.762Z,14.97
2022-10-22T07:15:28.245Z,14.96
2022-10-22T07:17:54.656Z,14.96
2022-10-22T07:20:21.650Z,14.94
2022-10-22T07:22:48.080Z,14.97
2022-10-22T07:25:14.542Z,14.94
2022-10-22T07:27:41.139Z,14.92
2022-10-22T07:30:08.592Z,14.86
2022-10-22T07:32:34.977Z,14.91
2022-10-22T07:35:01.400Z,14.65
2022-10-22T07:37:27.769Z,14.81
2022-10-22T07:39:54.200Z,14.83
2022-10-22T07:42:20.683Z,14.84
2022-10-22T07:44:47.227Z,14.87
2022-10-22T07:47:13.614Z,14.89
2022-10-22T07:49:40.093Z,14.82
2022-10-22T07:52:08.077Z,14.92
2022-10-22T07:54:34.511Z,14.90
2022-10-22T07:57:01.089Z,14.85
2022-10-22T07:59:27.525Z,14.51
2022-10-22T08:01:53.912Z,14.83
2022-10-22T08:04:20.348Z,13.95
2022-10-22T08:06:47.458Z,14.41
2022-10-22T08:09:14.654Z,13.14
2022-10-22T08:11:41.099Z,14.24
2022-10-22T08:14:07.574Z,14.51
2022-10-22T08:16:34.048Z,13.69
2022-10-22T08:19:00.440Z,14.42
2022-10-22T08:21:26.867Z,14.69
2022-10-22T08:23:53.399Z,14.78
2022-10-22T08:26:19.880Z,14.80
2022-10-22T08:28:46.335Z,14.82
2022-10-22T08:31:12.852Z,14.83
2022-10-22T08:33:39.704Z,14.79
2022-10-22T08:36:06.808Z,14.77
2022-10-22T08:38:33.419Z,14.64
2022-10-22T08:41:08.987Z,13.91
2022-10-22T08:43:44.293Z,14.53
2022-10-22T08:46:48.006Z,13.96
2022-10-22T08:49:22.745Z,13.41
2022-10-22T08:51:49.460Z,14.40
2022-10-22T08:54:43.799Z,14.59
2022-10-22T08:57:27.600Z,14.69
2022-10-22T09:00:02.592Z,14.50
2022-10-22T09:02:39.984Z,14.71
2022-10-22T09:05:11.622Z,14.76
2022-10-22T09:07:43.549Z,14.75
2022-10-22T09:10:12.861Z,14.74
2022-10-22T09:12:39.359Z,14.73
2022-10-22T09:15:06.162Z,14.70
2022-10-22T09:17:41.481Z,14.75
2022-10-22T09:20:26.310Z,13.75
2022-10-22T09:23:03.454Z,14.02
2022-10-22T09:25:33.662Z,14.47
2022-10-22T09:28:00.133Z,14.65
2022-10-22T09:30:29.865Z,14.69
2022-10-22T09:33:06.422Z,13.88
2022-10-22T09:35:58.133Z,13.70
2022-10-22T09:38:31.547Z,14.45
2022-10-22T09:41:00.563Z,14.59
2022-10-22T09:43:27.142Z,14.63
2022-10-22T09:46:00.096Z,14.65
2022-10-22T09:48:39.259Z,14.67
2022-10-22T09:51:15.442Z,14.69
2022-10-22T09:53:44.353Z,14.62
2022-10-22T09:56:23.769Z,14.64
2022-10-22T09:58:51.809Z,14.68
2022-10-22T10:01:25.524Z,14.71
2022-10-22T10:03:52.372Z,14.17
2022-10-22T10:06:23.367Z,14.54
2022-10-22T10:08:50.306Z,14.62
2022-10-22T10:11:29.052Z,14.69
2022-10-22T10:14:10.016Z,15.09
2022-10-22T10:16:59.119Z,15.36
2022-10-22T10:19:41.002Z,15.33
2022-10-22T10:22:29.173Z,15.40
2022-10-22T10:25:11.084Z,16.23
2022-10-22T10:27:47.723Z,15.67
2022-10-22T10:30:18.692Z,15.61
2022-10-22T10:32:55.092Z,15.64
2022-10-22T10:35:47.952Z,15.55
2022-10-22T10:38:33.603Z,15.22
2022-10-22T10:41:19.864Z,14.94
2022-10-22T10:44:00.320Z,15.00
2022-10-22T10:46:44.756Z,15.28
2022-10-22T10:49:19.647Z,15.09
2022-10-22T10:52:04.649Z,14.92
2022-10-22T10:55:11.892Z,15.59
2022-10-22T10:57:41.415Z,17.54
2022-10-22T11:00:15.850Z,16.66
2022-10-22T11:03:18.103Z,16.97
2022-10-22T11:06:09.088Z,17.10
2022-10-22T11:08:45.346Z,16.68
2022-10-22T11:11:46.738Z,16.67
2022-10-22T11:14:24.226Z,17.83
2022-10-22T11:17:03.687Z,16.16
2022-10-22T11:19:51.588Z,15.66
2022-10-22T11:22:28.310Z,17.40
2022-10-22T11:25:03.983Z,15.89
2022-10-22T11:27:45.874Z,15.52
2022-10-22T11:30:18.511Z,15.22
2022-10-22T11:32:49.732Z,15.19
2022-10-22T11:35:24.855Z,15.45
2022-10-22T11:37:55.597Z,15.16
2022-10-22T11:40:30.778Z,15.46
2022-10-22T11:42:59.554Z,15.21
2022-10-22T11:45:25.964Z,16.05
2022-10-22T11:48:07.724Z,15.51
2022-10-22T11:50:57.542Z,16.16
2022-10-22T11:53:31.466Z,16.62
2022-10-22T11:56:04.612Z,17.39
2022-10-22T11:58:39.173Z,17.28
2022-10-22T12:01:08.562Z,17.20
2022-10-22T12:03:34.911Z,16.07
2022-10-22T12:06:15.273Z,15.79
2022-10-22T12:08:54.433Z,15.76
2022-10-22T12:11:22.341Z,16.01
2022-10-22T12:14:00.941Z,16.02
2022-10-22T12:16:54.525Z,15.87
2022-10-22T12:19:22.880Z,15.93
2022-10-22T12:21:52.372Z,16.03
2022-10-22T12:24:19.728Z,15.85
2022-10-22T12:26:47.005Z,16.00
2022-10-22T12:29:16.712Z,15.88
2022-10-22T12:31:44.671Z,15.82
2022-10-22T12:34:17.865Z,15.88
2022-10-22T12:36:46.544Z,16.02
2022-10-22T12:39:19.022Z,16.47
2022-10-22T12:41:46.499Z,16.32
2022-10-22T12:44:15.899Z,16.51
2022-10-22T12:46:44.235Z,16.32
2022-10-22T12:49:18.851Z,16.06
2022-10-22T12:51:46.868Z,16.46
2022-10-22T12:54:28.679Z,16.67
2022-10-22T12:56:56.423Z,16.35
2022-10-22T12:59:29.837Z,16.28
2022-10-22T13:01:56.960Z,16.41
2022-10-22T13:04:26.631Z,16.56
2022-10-22T13:07:04.568Z,16.53
2022-10-22T13:09:38.351Z,16.18
2022-10-22T13:12:06.973Z,16.52
2022-10-22T13:14:39.124Z,16.25
2022-10-22T13:17:08.925Z,16.09
2022-10-22T13:19:41.219Z,16.04
2022-10-22T13:22:26.247Z,16.02
2022-10-22T13:24:53.242Z,16.55
2022-10-22T13:27:20.306Z,16.49
2022-10-22T13:29:46.835Z,16.51
2022-10-22T13:32:40.032Z,16.52
2022-10-22T13:35:06.806Z,16.32
2022-10-22T13:37:34.266Z,16.35
2022-10-22T13:40:00.688Z,16.08
2022-10-22T13:42:27.132Z,16.53
2022-10-22T13:44:53.526Z,16.23
2022-10-22T13:47:29.551Z,16.08
2022-10-22T13:49:59.577Z,16.45
2022-10-22T13:52:29.191Z,16.27
2022-10-22T13:54:55.685Z,16.15
2022-10-22T13:57:22.091Z,16.14
2022-10-22T13:59:48.617Z,16.08
2022-10-22T14:02:16.421Z,16.18
2022-10-22T14:04:43.247Z,16.23
2022-10-22T14:07:18.747Z,16.18
2022-10-22T14:09:45.385Z,16.14
2022-10-22T14:12:16.891Z,16.21
2022-10-22T14:14:43.486Z,16.23
2022-10-22T14:54:28.608Z,16.09
2022-10-22T14:56:55.017Z,16.11
2022-10-22T14:59:21.462Z,16.09
2022-10-22T15:01:47.907Z,16.10
2022-10-22T15:04:14.305Z,16.10
2022-10-22T15:06:40.758Z,16.11
2022-10-22T15:09:07.280Z,16.12
2022-10-22T15:11:33.904Z,16.08
2022-10-22T15:14:00.330Z,16.09
2022-10-22T15:16:26.797Z,16.06
2022-10-22T15:18:53.366Z,16.07
2022-10-22T15:21:22.078Z,16.04
2022-10-22T15:23:49.540Z,16.02
2022-10-22T15:26:16.170Z,16.02
2022-10-22T15:28:43.266Z,16.01
2022-10-22T15:31:13.141Z,16.01
2022-10-22T15:33:41.537Z,15.98
2022-10-22T15:36:13.851Z,15.96
2022-10-22T15:38:40.561Z,15.95
2022-10-22T15:41:10.109Z,15.94
2022-10-22T15:43:37.087Z,15.97
2022-10-22T15:46:13.190Z,15.96
2022-10-22T15:48:39.905Z,15.96
2022-10-22T15:51:11.548Z,16.02
2022-10-22T15:53:38.126Z,16.00
2022-10-22T15:56:04.988Z,16.02
2022-10-22T15:58:31.716Z,15.97
2022-10-22T16:01:09.410Z,15.97
2022-10-22T16:03:36.503Z,15.95
2022-10-22T16:06:04.033Z,15.96
2022-10-22T16:08:30.530Z,15.97
2022-10-22T16:10:56.971Z,15.97
2022-10-22T16:13:24.780Z,15.96
2022-10-22T16:15:51.585Z,15.94
2022-10-22T16:18:18.731Z,15.97
2022-10-22T16:20:45.300Z,15.94
2022-10-22T16:23:12.224Z,15.96
2022-10-22T16:25:42.218Z,15.95
2022-10-22T16:28:09.876Z,15.93
2022-10-22T16:30:37.424Z,15.92
2022-10-22T16:33:06.246Z,15.93
2022-10-22T16:35:32.981Z,15.90
2022-10-22T16:37:59.751Z,15.93
2022-10-22T16:40:26.903Z,15.91
2022-10-22T16:42:53.328Z,15.89
2022-10-22T16:45:19.709Z,15.93
2022-10-22T16:47:47.916Z,15.91
2022-10-22T16:50:14.737Z,15.88
2022-10-22T16:52:41.175Z,15.87
2022-10-22T16:55:08.008Z,15.87
2022-10-22T16:57:35.808Z,15.84
2022-10-22T17:00:03.936Z,15.89
2022-10-22T17:02:30.397Z,15.89
2022-10-22T17:04:56.830Z,15.86
2022-10-22T17:07:23.277Z,15.87
2022-10-22T17:09:49.707Z,15.88
2022-10-22T17:12:16.218Z,15.86
2022-10-22T17:14:42.640Z,15.85
2022-10-22T17:17:09.007Z,15.88
2022-10-22T17:19:38.770Z,15.87
2022-10-22T17:22:05.542Z,15.82
2022-10-22T17:24:32.052Z,15.83
2022-10-22T17:26:58.957Z,15.83
2022-10-22T17:29:25.477Z,15.80
2022-10-22T17:31:52.531Z,15.79
2022-10-22T17:34:18.954Z,15.80
2022-10-22T17:36:45.611Z,15.79
2022-10-22T17:39:17.220Z,15.85
2022-10-22T17:41:43.799Z,14.57
2022-10-22T17:44:12.213Z,13.64
2022-10-22T17:46:38.945Z,14.89
2022-10-22T17:49:09.587Z,15.53
2022-10-22T17:51:36.021Z,15.64
2022-10-22T17:54:04.672Z,15.66
2022-10-22T17:56:33.932Z,15.69
2022-10-22T17:59:01.580Z,15.70
2022-10-22T18:01:31.449Z,15.64
2022-10-22T18:04:03.589Z,15.63
2022-10-22T18:06:30.540Z,15.64
2022-10-22T18:08:57.023Z,15.62
2022-10-22T18:11:26.098Z,15.61
2022-10-22T18:13:54.967Z,15.62
2022-10-22T18:16:21.772Z,15.68
2022-10-22T18:18:49.536Z,15.49
2022-10-22T18:21:16.956Z,15.62
2022-10-22T18:23:43.446Z,15.61
2022-10-22T18:26:09.848Z,15.62
2022-10-22T18:28:36.732Z,15.58
2022-10-22T18:31:08.336Z,15.59
2022-10-22T18:33:36.840Z,13.71
2022-10-22T18:36:05.880Z,15.20
2022-10-22T18:38:32.776Z,15.46
2022-10-22T18:40:59.962Z,15.49
2022-10-22T18:43:26.701Z,15.53
2022-10-22T18:45:53.102Z,14.58
2022-10-22T18:48:22.869Z,15.36
2022-10-22T18:50:59.343Z,15.39
2022-10-22T18:53:25.907Z,13.55
2022-10-22T18:55:52.391Z,14.84
2022-10-22T18:58:18.826Z,15.27
2022-10-22T19:00:45.389Z,15.34
2022-10-22T19:03:14.351Z,15.38
2022-10-22T19:05:48.760Z,15.45
2022-10-22T19:08:18.156Z,15.39
2022-10-22T19:10:45.336Z,15.34
2022-10-22T19:13:16.604Z,15.38
2022-10-22T19:15:43.106Z,15.35
2022-10-22T19:18:09.886Z,15.33
2022-10-22T19:20:36.936Z,15.34
2022-10-22T19:23:03.629Z,15.38
2022-10-22T19:25:30.068Z,15.35
2022-10-22T19:27:56.527Z,15.32
2022-10-22T19:30:24.064Z,15.35
2022-10-22T19:32:50.504Z,15.33
2022-10-22T19:35:17.629Z,15.28
2022-10-22T19:37:48.258Z,15.34
2022-10-22T19:40:15.224Z,15.10
2022-10-22T19:42:44.255Z,15.23
2022-10-22T19:45:11.162Z,15.18
2022-10-22T19:47:37.572Z,15.23
2022-10-22T19:50:04.324Z,15.22
2022-10-22T19:52:30.782Z,15.13
2022-10-22T19:54:57.198Z,15.10
2022-10-22T19:57:23.575Z,14.03
2022-10-22T19:59:50.860Z,14.66
2022-10-22T20:02:18.565Z,15.00
2022-10-22T20:04:49.209Z,15.03
2022-10-22T20:07:16.750Z,13.36
2022-10-22T20:09:43.233Z,14.05
2022-10-22T20:12:09.652Z,14.80
2022-10-22T20:14:36.125Z,15.00
2022-10-22T20:17:02.576Z,15.05
2022-10-22T20:19:29.779Z,13.51
2022-10-22T20:21:56.347Z,14.69
2022-10-22T20:24:22.961Z,13.75
2022-10-22T20:26:49.472Z,14.73
2022-10-22T20:29:16.199Z,14.85
2022-10-22T20:31:42.982Z,14.94
2022-10-22T20:34:09.795Z,14.92
2022-10-22T20:36:36.295Z,14.86
2022-10-22T20:39:08.396Z,14.84
2022-10-22T20:41:37.656Z,14.88
2022-10-22T20:44:04.229Z,14.90
2022-10-22T20:46:32.123Z,14.97
2022-10-22T20:49:04.967Z,14.84
2022-10-22T20:51:31.800Z,14.81
2022-10-22T20:53:58.695Z,14.84
2022-10-22T20:56:25.646Z,14.90
2022-10-22T20:59:03.762Z,14.76
2022-10-22T21:01:34.283Z,14.90
2022-10-22T21:04:00.665Z,13.64
2022-10-22T21:06:27.277Z,13.05
2022-10-22T21:08:53.811Z,14.32
2022-10-22T21:11:21.007Z,14.64
2022-10-22T21:13:47.448Z,14.70
2022-10-22T21:16:16.945Z,14.71
2022-10-22T21:18:43.364Z,14.29
2022-10-22T21:21:11.640Z,13.75
2022-10-22T21:23:38.349Z,14.53
2022-10-22T21:26:05.877Z,14.65
2022-10-22T21:28:35.542Z,14.69
2022-10-22T21:31:07.663Z,14.49
2022-10-22T21:33:38.500Z,14.64
2022-10-22T21:36:06.624Z,14.59
2022-10-22T21:38:33.239Z,14.71
2022-10-22T21:41:05.107Z,14.45
2022-10-22T21:43:31.537Z,14.55
2022-10-22T21:46:24.961Z,14.58
2022-10-22T21:48:56.276Z,14.57
2022-10-22T21:51:24.807Z,14.51
2022-10-22T21:56:35.172Z,14.35
2022-10-22T21:59:06.040Z,14.55
2022-10-22T22:01:32.949Z,13.55
2022-10-22T22:03:59.528Z,13.90
2022-10-22T22:06:30.725Z,11.60
2022-10-22T22:08:58.913Z,12.93
2022-10-22T22:11:27.176Z,14.10
2022-10-22T22:13:55.295Z,14.28
2022-10-22T22:16:28.154Z,14.31
2022-10-22T22:18:59.035Z,11.04
2022-10-22T22:21:26.006Z,13.66
2022-10-22T22:23:52.490Z,14.17
2022-10-22T22:26:25.369Z,14.24
2022-10-22T22:28:55.417Z,14.37
2022-10-22T22:31:30.585Z,14.34
2022-10-22T22:34:10.124Z,14.28
2022-10-22T22:36:37.992Z,14.01
2022-10-22T22:39:10.563Z,14.23
2022-10-22T22:41:37.029Z,14.32
2022-10-22T22:44:03.891Z,12.72
2022-10-22T22:46:30.310Z,13.78
2022-10-22T22:48:56.802Z,13.63
2022-10-22T22:51:23.504Z,12.05
2022-10-22T22:53:50.103Z,13.84
2022-10-22T22:56:25.938Z,14.08
2022-10-22T22:58:52.644Z,14.13
2022-10-22T23:01:21.024Z,14.10
2022-10-22T23:03:52.591Z,12.55
2022-10-22T23:06:19.099Z,13.71
2022-10-22T23:08:49.366Z,13.35
2022-10-22T23:11:16.071Z,14.00
2022-10-22T23:13:43.063Z,14.06
2022-10-22T23:16:19.267Z,14.07
2022-10-22T23:18:47.633Z,14.09
2022-10-22T23:21:17.385Z,11.51
2022-10-22T23:23:49.512Z,8.90
2022-10-22T23:26:20.363Z,13.06
2022-10-22T23:28:46.831Z,11.53
2022-10-22T23:31:15.175Z,13.20
2022-10-22T23:33:42.855Z,13.70
2022-10-22T23:36:10.412Z,13.78
2022-10-22T23:38:38.817Z,13.49
2022-10-22T23:41:05.820Z,13.48
2022-10-22T23:43:36.042Z,13.76
2022-10-22T23:46:06.524Z,12.47
2022-10-22T23:48:33.345Z,11.47
2022-10-22T23:51:12.900Z,13.46
2022-10-22T23:53:39.854Z,12.60
2022-10-22T23:56:08.476Z,13.57
2022-10-22T23:58:35.420Z,13.73
